createdAt,value
2019-04-20T00:00:57.909Z,993.777
2019-04-20T00:02:59.988Z,993.786
2019-04-20T00:04:51.571Z,993.785
2019-04-20T00:06:56.095Z,993.793
2019-04-20T00:09:12.854Z,993.800
2019-04-20T00:11:11.465Z,993.814
2019-04-20T00:13:21.432Z,993.820
2019-04-20T00:14:50.186Z,993.824
2019-04-20T00:16:50.775Z,993.823
2019-04-20T00:19:01.590Z,993.813
2019-04-20T00:21:11.076Z,993.799
2019-04-20T00:22:56.284Z,993.788
2019-04-20T00:25:10.367Z,993.769
2019-04-20T00:27:31.142Z,993.759
2019-04-20T00:29:21.186Z,993.763
2019-04-20T00:31:18.722Z,993.785
2019-04-20T00:33:24.093Z,993.787
2019-04-20T00:34:54.005Z,993.818
2019-04-20T00:36:50.314Z,993.825
2019-04-20T00:39:03.747Z,993.818
2019-04-20T00:41:08.860Z,993.826
2019-04-20T00:42:58.605Z,993.839
2019-04-20T00:45:11.869Z,993.858
2019-04-20T00:47:19.832Z,993.875
2019-04-20T00:49:25.218Z,993.894
2019-04-20T00:53:20.346Z,993.908
2019-04-20T00:54:49.709Z,993.908
2019-04-20T00:56:50.091Z,993.939
2019-04-20T00:59:23.048Z,993.935
2019-04-20T01:01:24.525Z,993.923
2019-04-20T01:03:24.654Z,993.906
2019-04-20T01:05:22.573Z,993.908
2019-04-20T01:07:20.140Z,993.872
2019-04-20T01:08:51.056Z,993.844
2019-04-20T01:10:59.350Z,993.819
2019-04-20T01:13:12.133Z,993.824
2019-04-20T01:15:06.203Z,993.813
2019-04-20T01:17:11.906Z,993.839
2019-04-20T01:18:50.213Z,993.828
2019-04-20T01:20:51.583Z,993.833
2019-04-20T01:23:11.859Z,993.841
2019-04-20T01:24:54.941Z,993.808
2019-04-20T01:27:03.515Z,993.796
2019-04-20T01:29:21.400Z,993.789
2019-04-20T01:31:21.809Z,993.786
2019-04-20T01:33:24.979Z,993.815
2019-04-20T01:35:24.568Z,993.827
2019-04-20T01:37:20.713Z,993.835
2019-04-20T01:39:20.452Z,993.844
2019-04-20T01:40:50.774Z,993.841
2019-04-20T01:42:51.400Z,993.833
2019-04-20T01:44:57.061Z,993.830
2019-04-20T01:47:03.487Z,993.808
2019-04-20T01:48:50.831Z,993.780
2019-04-20T01:51:17.242Z,993.794
2019-04-20T01:53:20.975Z,993.832
2019-04-20T01:55:27.437Z,993.827
2019-04-20T01:57:15.402Z,993.834
2019-04-20T01:59:22.662Z,993.846
2019-04-20T02:00:57.591Z,993.869
2019-04-20T02:03:04.842Z,993.881
2019-04-20T02:05:04.367Z,993.886
2019-04-20T02:07:03.252Z,993.880
2019-04-20T02:09:11.812Z,993.883
2019-04-20T02:11:02.129Z,993.894
2019-04-20T02:13:04.671Z,993.898
2019-04-20T02:15:04.267Z,993.918
2019-04-20T02:17:16.624Z,993.902
2019-04-20T02:19:26.193Z,993.897
2019-04-20T02:21:19.489Z,993.878
2019-04-20T02:23:17.168Z,993.869
2019-04-20T02:24:51.223Z,993.857
2019-04-20T02:26:53.364Z,993.867
2019-04-20T02:29:23.454Z,993.885
2019-04-20T02:31:40.557Z,993.885
2019-04-20T02:33:34.257Z,993.874
2019-04-20T02:37:48.461Z,993.883
2019-04-20T02:39:37.311Z,993.886
2019-04-20T02:41:43.813Z,993.889
2019-04-20T02:43:46.291Z,993.897
2019-04-20T02:45:39.747Z,993.896
2019-04-20T02:47:40.153Z,993.891
2019-04-20T02:49:39.958Z,993.878
2019-04-20T02:51:40.686Z,993.875
2019-04-20T02:53:49.549Z,993.867
2019-04-20T02:55:39.553Z,993.872
2019-04-20T02:57:30.297Z,993.874
2019-04-20T03:03:22.459Z,993.883
2019-04-20T03:05:16.057Z,993.883
2019-04-20T03:07:23.079Z,993.883
2019-04-20T03:09:31.379Z,993.883
2019-04-20T03:13:31.859Z,993.893
2019-04-20T03:15:32.634Z,993.918
2019-04-20T03:17:32.486Z,993.920
2019-04-20T03:19:23.184Z,993.927
2019-04-20T03:21:31.266Z,993.930
2019-04-20T03:23:35.145Z,993.938
2019-04-20T03:25:29.471Z,993.956
2019-04-20T03:27:23.519Z,993.986
2019-04-20T03:29:15.750Z,994.012
2019-04-20T03:32:03.010Z,994.026
2019-04-20T03:35:22.011Z,994.003
2019-04-20T03:39:21.792Z,993.976
2019-04-20T03:41:17.384Z,993.986
2019-04-20T03:42:50.902Z,994.001
2019-04-20T03:45:09.087Z,994.007
2019-04-20T03:47:08.015Z,994.023
2019-04-20T03:49:37.708Z,994.069
2019-04-20T03:51:33.181Z,994.109
2019-04-20T03:53:27.599Z,994.122
2019-04-20T03:55:25.359Z,994.137
2019-04-20T03:57:26.192Z,994.153
2019-04-20T03:59:18.481Z,994.161
2019-04-20T04:01:35.662Z,994.171
2019-04-20T04:03:34.526Z,994.179
2019-04-20T04:05:23.411Z,994.179
2019-04-20T04:07:02.738Z,994.184
2019-04-20T04:09:19.863Z,994.170
2019-04-20T04:11:19.840Z,994.159
2019-04-20T04:12:54.600Z,994.153
2019-04-20T04:14:51.577Z,994.141
2019-04-20T04:17:02.289Z,994.153
2019-04-20T04:19:15.767Z,994.156
2019-04-20T04:21:06.726Z,994.135
2019-04-20T04:23:18.955Z,994.120
2019-04-20T04:25:20.512Z,994.118
2019-04-20T04:27:32.243Z,994.137
2019-04-20T04:29:29.717Z,994.137
2019-04-20T04:31:25.762Z,994.168
2019-04-20T04:33:45.534Z,994.192
2019-04-20T04:35:23.162Z,994.205
2019-04-20T04:37:23.953Z,994.228
2019-04-20T04:39:30.553Z,994.257
2019-04-20T04:41:26.420Z,994.277
2019-04-20T04:43:19.601Z,994.280
2019-04-20T04:45:09.432Z,994.287
2019-04-20T04:47:06.957Z,994.287
2019-04-20T04:49:09.467Z,994.312
2019-04-20T04:51:08.913Z,994.330
2019-04-20T04:53:14.893Z,994.345
2019-04-20T04:55:23.321Z,994.361
2019-04-20T04:56:50.621Z,994.361
2019-04-20T05:00:51.735Z,994.448
2019-04-20T05:03:15.261Z,994.474
2019-04-20T05:05:30.690Z,994.495
2019-04-20T05:07:18.708Z,994.495
2019-04-20T05:09:05.768Z,994.505
2019-04-20T05:10:50.201Z,994.497
2019-04-20T05:12:54.759Z,994.503
2019-04-20T05:15:15.669Z,994.505
2019-04-20T05:17:26.035Z,994.505
2019-04-20T05:19:29.017Z,994.504
2019-04-20T05:21:29.689Z,994.498
2019-04-20T05:23:24.138Z,994.495
2019-04-20T05:25:24.998Z,994.468
2019-04-20T05:27:24.483Z,994.444
2019-04-20T05:29:15.822Z,994.427
2019-04-20T05:31:04.818Z,994.430
2019-04-20T05:33:11.568Z,994.439
2019-04-20T05:35:26.263Z,994.434
2019-04-20T05:37:32.877Z,994.429
2019-04-20T05:39:26.423Z,994.428
2019-04-20T05:41:26.412Z,994.425
2019-04-20T05:43:20.371Z,994.425
2019-04-20T05:45:24.355Z,994.404
2019-04-20T05:47:26.415Z,994.404
2019-04-20T05:49:25.674Z,994.423
2019-04-20T05:53:26.276Z,994.413
2019-04-20T05:55:24.881Z,994.421
2019-04-20T05:57:24.869Z,994.418
2019-04-20T05:59:18.959Z,994.406
2019-04-20T06:01:24.537Z,994.407
2019-04-20T06:03:25.713Z,994.416
2019-04-20T06:05:34.503Z,994.420
2019-04-20T06:09:27.362Z,994.434
2019-04-20T06:13:17.134Z,994.423
2019-04-20T06:15:19.567Z,994.416
2019-04-20T06:17:24.989Z,994.421
2019-04-20T06:19:25.689Z,994.419
2019-04-20T06:21:30.941Z,994.413
2019-04-20T06:23:23.499Z,994.392
2019-04-20T06:25:52.758Z,994.376
2019-04-20T06:27:29.896Z,994.362
2019-04-20T06:29:21.795Z,994.373
2019-04-20T06:31:29.835Z,994.394
2019-04-20T06:33:38.414Z,994.384
2019-04-20T06:37:36.045Z,994.391
2019-04-20T06:39:30.714Z,994.415
2019-04-20T06:41:41.433Z,994.422
2019-04-20T06:43:31.380Z,994.434
2019-04-20T06:47:29.037Z,994.444
2019-04-20T06:50:01.117Z,994.447
2019-04-20T06:51:34.112Z,994.434
2019-04-20T06:53:31.734Z,994.437
2019-04-20T06:55:37.929Z,994.434
2019-04-20T06:57:30.899Z,994.439
2019-04-20T06:59:25.619Z,994.445
2019-04-20T07:01:28.817Z,994.443
2019-04-20T07:03:41.966Z,994.431
2019-04-20T07:07:29.200Z,994.427
2019-04-20T07:09:39.500Z,994.426
2019-04-20T07:13:21.671Z,994.400
2019-04-20T07:17:38.859Z,994.434
2019-04-20T07:19:22.451Z,994.408
2019-04-20T07:21:43.499Z,994.410
2019-04-20T07:23:30.988Z,994.417
2019-04-20T07:25:30.757Z,994.418
2019-04-20T07:27:22.394Z,994.400
2019-04-20T07:29:33.120Z,994.390
2019-04-20T07:31:29.146Z,994.392
2019-04-20T07:33:31.981Z,994.374
2019-04-20T07:35:30.143Z,994.367
2019-04-20T07:37:46.288Z,994.345
2019-04-20T07:39:27.606Z,994.353
2019-04-20T07:43:29.741Z,994.315
2019-04-20T07:45:29.414Z,994.317
2019-04-20T07:47:34.276Z,994.315
2019-04-20T07:49:28.845Z,994.300
2019-04-20T07:51:14.081Z,994.271
2019-04-20T07:53:25.239Z,994.272
2019-04-20T07:57:30.539Z,994.259
2019-04-20T07:59:17.474Z,994.247
2019-04-20T08:01:36.013Z,994.247
2019-04-20T08:03:32.908Z,994.247
2019-04-20T08:05:22.447Z,994.233
2019-04-20T08:07:05.703Z,994.238
2019-04-20T08:09:18.974Z,994.257
2019-04-20T08:11:26.571Z,994.250
2019-04-20T08:15:42.401Z,994.245
2019-04-20T08:17:36.888Z,994.243
2019-04-20T08:19:27.088Z,994.230
2019-04-20T08:23:28.407Z,994.222
2019-04-20T08:25:23.388Z,994.234
2019-04-20T08:27:06.410Z,994.232
2019-04-20T08:29:15.325Z,994.220
2019-04-20T08:31:20.225Z,994.219
2019-04-20T08:33:30.717Z,994.214
2019-04-20T08:35:25.777Z,994.207
2019-04-20T08:37:24.646Z,994.200
2019-04-20T08:39:36.983Z,994.189
2019-04-20T08:41:20.404Z,994.195
2019-04-20T08:43:41.579Z,994.217
2019-04-20T08:45:34.431Z,994.241
2019-04-20T08:47:37.627Z,994.223
2019-04-20T08:49:34.670Z,994.214
2019-04-20T08:51:25.213Z,994.194
2019-04-20T08:53:25.778Z,994.155
2019-04-20T08:55:28.007Z,994.180
2019-04-20T08:57:03.567Z,994.168
2019-04-20T08:58:50.959Z,994.168
2019-04-20T09:01:06.645Z,994.172
2019-04-20T09:03:15.814Z,994.177
2019-04-20T09:05:11.634Z,994.144
2019-04-20T09:07:17.573Z,994.103
2019-04-20T09:09:37.420Z,994.095
2019-04-20T09:11:19.302Z,994.078
2019-04-20T09:13:18.516Z,994.072
2019-04-20T09:14:51.003Z,994.028
2019-04-20T09:17:07.746Z,994.010
2019-04-20T09:19:11.246Z,993.997
2019-04-20T09:21:19.659Z,993.974
2019-04-20T09:23:26.350Z,993.948
2019-04-20T09:25:42.374Z,993.906
2019-04-20T09:27:21.640Z,993.908
2019-04-20T09:29:19.404Z,993.878
2019-04-20T09:31:19.746Z,993.873
2019-04-20T09:33:22.058Z,993.844
2019-04-20T09:35:29.636Z,993.836
2019-04-20T09:37:23.355Z,993.830
2019-04-20T09:39:18.435Z,993.792
2019-04-20T09:41:30.226Z,993.805
2019-04-20T09:42:49.896Z,993.754
2019-04-20T09:45:02.557Z,993.749
2019-04-20T09:47:02.940Z,993.739
2019-04-20T09:49:12.817Z,993.689
2019-04-20T09:51:29.996Z,993.677
2019-04-20T09:53:24.397Z,993.700
2019-04-20T09:55:24.091Z,993.721
2019-04-20T09:57:24.115Z,993.713
2019-04-20T09:59:21.831Z,993.707
2019-04-20T10:01:15.414Z,993.680
2019-04-20T10:02:50.742Z,993.699
2019-04-20T10:04:51.674Z,993.682
2019-04-20T10:06:49.918Z,993.649
2019-04-20T10:09:01.810Z,993.626
2019-04-20T10:10:54.259Z,993.611
2019-04-20T10:12:50.308Z,993.616
2019-04-20T10:14:51.160Z,993.637
2019-04-20T10:16:52.023Z,993.628
2019-04-20T10:18:56.533Z,993.571
2019-04-20T10:20:49.984Z,993.554
2019-04-20T10:22:51.035Z,993.542
2019-04-20T10:24:55.444Z,993.492
2019-04-20T10:26:50.742Z,993.456
2019-04-20T10:28:49.988Z,993.454
2019-04-20T10:30:50.643Z,993.440
2019-04-20T10:32:55.734Z,993.444
2019-04-20T10:34:50.849Z,993.430
2019-04-20T10:36:51.617Z,993.395
2019-04-20T10:38:50.890Z,993.401
2019-04-20T10:41:13.722Z,993.401
2019-04-20T10:42:50.362Z,993.397
2019-04-20T10:44:58.883Z,993.362
2019-04-20T10:46:49.623Z,993.343
2019-04-20T10:48:59.374Z,993.311
2019-04-20T10:50:50.228Z,993.261
2019-04-20T10:52:50.314Z,993.257
2019-04-20T10:54:50.607Z,993.281
2019-04-20T10:56:50.007Z,993.289
2019-04-20T10:58:50.049Z,993.273
2019-04-20T11:00:53.576Z,993.252
2019-04-20T11:02:52.628Z,993.236
2019-04-20T11:04:50.848Z,993.225
2019-04-20T11:06:50.580Z,993.213
2019-04-20T11:08:50.947Z,993.205
2019-04-20T11:11:16.145Z,993.177
2019-04-20T11:12:50.813Z,993.146
2019-04-20T11:14:50.442Z,993.148
2019-04-20T11:16:51.045Z,993.151
2019-04-20T11:18:51.466Z,993.163
2019-04-20T11:20:51.324Z,993.192
2019-04-20T11:22:50.778Z,993.139
2019-04-20T11:24:50.459Z,993.109
2019-04-20T11:26:50.037Z,993.085
2019-04-20T11:28:50.604Z,993.095
2019-04-20T11:30:50.339Z,993.090
2019-04-20T11:32:52.033Z,993.079
2019-04-20T11:34:51.466Z,993.051
2019-04-20T11:36:51.063Z,992.976
2019-04-20T11:38:51.332Z,992.953
2019-04-20T11:41:16.206Z,992.909
2019-04-20T11:42:50.192Z,992.875
2019-04-20T11:44:51.018Z,992.900
2019-04-20T11:46:50.544Z,992.913
2019-04-20T11:48:49.805Z,992.909
2019-04-20T11:50:49.873Z,992.867
2019-04-20T11:52:52.832Z,992.809
2019-04-20T11:54:50.720Z,992.767
2019-04-20T11:56:51.393Z,992.749
2019-04-20T11:58:51.313Z,992.755
2019-04-20T12:01:14.033Z,992.770
2019-04-20T12:02:58.873Z,992.764
2019-04-20T12:05:19.751Z,992.736
2019-04-20T12:06:50.884Z,992.688
2019-04-20T12:08:50.169Z,992.623
2019-04-20T12:11:18.541Z,992.587
2019-04-20T12:12:55.911Z,992.559
2019-04-20T12:14:50.747Z,992.468
2019-04-20T12:16:50.215Z,992.486
2019-04-20T12:18:50.628Z,992.489
2019-04-20T12:20:50.680Z,992.467
2019-04-20T12:22:50.682Z,992.429
2019-04-20T12:24:50.206Z,992.433
2019-04-20T12:26:51.268Z,992.428
2019-04-20T12:28:51.782Z,992.451
2019-04-20T12:30:51.649Z,992.437
2019-04-20T12:33:01.974Z,992.437
2019-04-20T12:34:50.022Z,992.401
2019-04-20T12:36:51.396Z,992.383
2019-04-20T12:38:51.220Z,992.334
2019-04-20T12:40:50.571Z,992.308
2019-04-20T12:42:51.116Z,992.261
2019-04-20T12:44:50.298Z,992.204
2019-04-20T12:46:52.112Z,992.225
2019-04-20T12:48:51.683Z,992.194
2019-04-20T12:50:50.153Z,992.200
2019-04-20T12:52:50.563Z,992.190
2019-04-20T12:54:50.686Z,992.166
2019-04-20T12:56:50.910Z,992.159
2019-04-20T12:58:51.760Z,992.115
2019-04-20T13:00:50.598Z,992.087
2019-04-20T13:02:51.703Z,992.088
2019-04-20T13:04:51.384Z,992.070
2019-04-20T13:06:55.488Z,992.076
2019-04-20T13:09:00.634Z,992.029
2019-04-20T13:10:50.944Z,991.998
2019-04-20T13:12:50.495Z,991.906
2019-04-20T13:14:50.894Z,991.896
2019-04-20T13:16:54.850Z,991.896
2019-04-20T13:18:51.240Z,991.853
2019-04-20T13:20:57.822Z,991.842
2019-04-20T13:22:51.137Z,991.826
2019-04-20T13:24:49.838Z,991.763
2019-04-20T13:26:51.189Z,991.741
2019-04-20T13:28:51.164Z,991.705
2019-04-20T13:30:50.332Z,991.678
2019-04-20T13:32:50.093Z,991.659
2019-04-20T13:34:50.314Z,991.626
2019-04-20T13:36:50.698Z,991.606
2019-04-20T13:38:50.433Z,991.570
2019-04-20T13:40:51.661Z,991.589
2019-04-20T13:42:50.093Z,991.548
2019-04-20T13:44:51.039Z,991.494
2019-04-20T13:46:52.290Z,991.475
2019-04-20T13:48:51.301Z,991.443
2019-04-20T13:50:50.052Z,991.433
2019-04-20T13:52:51.261Z,991.411
2019-04-20T13:54:51.851Z,991.367
2019-04-20T13:56:50.373Z,991.345
2019-04-20T13:58:50.685Z,991.318
2019-04-20T14:00:55.450Z,991.289
2019-04-20T14:02:51.200Z,991.269
2019-04-20T14:04:51.021Z,991.240
2019-04-20T14:06:51.365Z,991.227
2019-04-20T14:08:49.682Z,991.207
2019-04-20T14:10:49.798Z,991.152
2019-04-20T14:13:11.688Z,991.129
2019-04-20T14:14:51.179Z,991.113
2019-04-20T14:16:50.707Z,991.124
2019-04-20T14:18:51.289Z,991.110
2019-04-20T14:20:50.516Z,991.075
2019-04-20T14:22:52.712Z,991.053
2019-04-20T14:24:51.255Z,991.038
2019-04-20T14:26:51.027Z,990.975
2019-04-20T14:28:50.032Z,990.925
2019-04-20T14:30:52.035Z,990.902
2019-04-20T14:32:50.721Z,990.858
2019-04-20T14:34:51.447Z,990.825
2019-04-20T14:36:51.120Z,990.804
2019-04-20T14:38:50.166Z,990.780
2019-04-20T14:40:50.577Z,990.737
2019-04-20T14:42:56.817Z,990.706
2019-04-20T14:44:50.319Z,990.672
2019-04-20T14:46:51.567Z,990.650
2019-04-20T14:48:49.834Z,990.644
2019-04-20T14:50:50.034Z,990.660
2019-04-20T14:52:51.407Z,990.665
2019-04-20T14:54:50.007Z,990.644
2019-04-20T14:56:51.887Z,990.625
2019-04-20T14:58:51.651Z,990.606
2019-04-20T15:00:54.939Z,990.622
2019-04-20T15:02:50.197Z,990.615
2019-04-20T15:04:50.786Z,990.587
2019-04-20T15:06:50.800Z,990.587
2019-04-20T15:08:50.664Z,990.559
2019-04-20T15:10:52.292Z,990.516
2019-04-20T15:13:04.339Z,990.487
2019-04-20T15:14:50.621Z,990.454
2019-04-20T15:16:51.099Z,990.416
2019-04-20T15:18:54.692Z,990.390
2019-04-20T15:20:51.464Z,990.353
2019-04-20T15:22:50.104Z,990.338
2019-04-20T15:24:49.787Z,990.323
2019-04-20T15:26:49.841Z,990.313
2019-04-20T15:28:50.676Z,990.304
2019-04-20T15:30:50.551Z,990.286
2019-04-20T15:32:52.690Z,990.269
2019-04-20T15:34:51.132Z,990.257
2019-04-20T15:36:52.074Z,990.237
2019-04-20T15:38:51.549Z,990.248
2019-04-20T15:40:51.264Z,990.259
2019-04-20T15:43:14.282Z,990.303
2019-04-20T15:44:49.766Z,990.270
2019-04-20T15:46:51.245Z,990.276
2019-04-20T15:48:50.520Z,990.263
2019-04-20T15:50:52.075Z,990.264
2019-04-20T15:52:58.745Z,990.225
2019-04-20T15:54:50.137Z,990.160
2019-04-20T15:57:09.715Z,990.128
2019-04-20T15:58:50.736Z,990.115
2019-04-20T16:00:54.675Z,990.093
2019-04-20T16:02:49.757Z,990.111
2019-04-20T16:04:52.719Z,990.103
2019-04-20T16:06:50.771Z,990.099
2019-04-20T16:08:50.521Z,990.128
2019-04-20T16:10:51.160Z,990.128
2019-04-20T16:13:19.794Z,990.111
2019-04-20T16:14:49.760Z,990.108
2019-04-20T16:16:50.958Z,990.092
2019-04-20T16:18:50.951Z,990.079
2019-04-20T16:21:13.186Z,990.083
2019-04-20T16:22:50.545Z,990.060
2019-04-20T16:24:49.679Z,990.037
2019-04-20T16:26:51.201Z,990.000
2019-04-20T16:28:50.418Z,990.006
2019-04-20T16:30:51.898Z,990.015
2019-04-20T16:32:50.492Z,990.009
2019-04-20T16:34:50.903Z,990.005
2019-04-20T16:36:58.144Z,989.977
2019-04-20T16:38:51.305Z,989.957
2019-04-20T16:40:50.665Z,989.934
2019-04-20T16:42:50.512Z,989.915
2019-04-20T16:44:51.606Z,989.906
2019-04-20T16:46:50.409Z,989.859
2019-04-20T16:48:49.615Z,989.835
2019-04-20T16:50:51.143Z,989.819
2019-04-20T16:52:51.100Z,989.795
2019-04-20T16:54:50.389Z,989.791
2019-04-20T16:56:50.958Z,989.763
2019-04-20T16:59:06.899Z,989.746
2019-04-20T17:00:51.893Z,989.762
2019-04-20T17:02:50.328Z,989.746
2019-04-20T17:04:56.538Z,989.740
2019-04-20T17:06:50.039Z,989.725
2019-04-20T17:08:51.545Z,989.729
2019-04-20T17:10:49.691Z,989.692
2019-04-20T17:12:49.746Z,989.676
2019-04-20T17:14:51.928Z,989.663
2019-04-20T17:16:51.435Z,989.652
2019-04-20T17:18:52.156Z,989.652
2019-04-20T17:20:50.839Z,989.646
2019-04-20T17:22:51.011Z,989.653
2019-04-20T17:24:51.784Z,989.658
2019-04-20T17:26:50.960Z,989.658
2019-04-20T17:28:55.769Z,989.655
2019-04-20T17:30:51.067Z,989.656
2019-04-20T17:32:51.324Z,989.672
2019-04-20T17:35:20.478Z,989.685
2019-04-20T17:36:50.827Z,989.704
2019-04-20T17:39:02.719Z,989.705
2019-04-20T17:41:30.318Z,989.712
2019-04-20T17:43:19.568Z,989.711
2019-04-20T17:45:13.826Z,989.710
2019-04-20T17:47:30.016Z,989.696
2019-04-20T17:49:19.274Z,989.698
2019-04-20T17:51:22.212Z,989.720
2019-04-20T17:53:20.222Z,989.726
2019-04-20T17:54:49.971Z,989.733
2019-04-20T17:56:49.846Z,989.734
2019-04-20T17:58:50.465Z,989.733
2019-04-20T18:00:59.631Z,989.725
2019-04-20T18:03:27.037Z,989.717
2019-04-20T18:05:22.810Z,989.714
2019-04-20T18:09:34.312Z,989.703
2019-04-20T18:11:16.518Z,989.722
2019-04-20T18:13:09.949Z,989.748
2019-04-20T18:15:27.278Z,989.748
2019-04-20T18:17:21.235Z,989.780
2019-04-20T18:19:13.729Z,989.776
2019-04-20T18:20:50.772Z,989.778
2019-04-20T18:22:58.647Z,989.766
2019-04-20T18:25:24.699Z,989.766
2019-04-20T18:27:31.375Z,989.774
2019-04-20T18:29:25.481Z,989.781
2019-04-20T18:31:07.111Z,989.776
2019-04-20T18:32:49.909Z,989.788
2019-04-20T18:35:03.346Z,989.811
2019-04-20T18:36:54.539Z,989.842
2019-04-20T18:39:08.609Z,989.844
2019-04-20T18:41:10.660Z,989.841
2019-04-20T18:43:13.268Z,989.841
2019-04-20T18:45:26.361Z,989.832
2019-04-20T18:47:28.521Z,989.863
2019-04-20T18:49:23.426Z,989.876
2019-04-20T18:50:54.670Z,989.891
2019-04-20T18:52:50.049Z,989.908
2019-04-20T18:54:55.739Z,989.891
2019-04-20T18:56:56.415Z,989.886
2019-04-20T18:58:51.318Z,989.888
2019-04-20T19:00:55.458Z,989.911
2019-04-20T19:03:07.198Z,989.923
2019-04-20T19:04:50.353Z,989.939
2019-04-20T19:06:52.168Z,989.939
2019-04-20T19:08:55.170Z,989.957
2019-04-20T19:11:09.675Z,989.981
2019-04-20T19:13:06.068Z,990.062
2019-04-20T19:15:20.080Z,990.084
2019-04-20T19:17:16.546Z,990.108
2019-04-20T19:19:19.785Z,990.136
2019-04-20T19:20:51.028Z,990.142
2019-04-20T19:22:50.315Z,990.155
2019-04-20T19:24:51.751Z,990.156
2019-04-20T19:27:06.547Z,990.171
2019-04-20T19:29:09.487Z,990.160
2019-04-20T19:31:24.937Z,990.168
2019-04-20T19:35:25.558Z,990.157
2019-04-20T19:37:15.463Z,990.152
2019-04-20T19:39:25.616Z,990.191
2019-04-20T19:41:24.896Z,990.185
2019-04-20T19:43:19.190Z,990.196
2019-04-20T19:45:35.971Z,990.196
2019-04-20T19:47:28.044Z,990.203
2019-04-20T19:49:19.051Z,990.202
2019-04-20T19:53:30.003Z,990.201
2019-04-20T19:55:24.286Z,990.221
2019-04-20T19:59:21.293Z,990.270
2019-04-20T20:00:57.767Z,990.297
2019-04-20T20:02:50.224Z,990.315
2019-04-20T20:05:08.664Z,990.314
2019-04-20T20:07:17.311Z,990.342
2019-04-20T20:09:08.700Z,990.345
2019-04-20T20:10:50.840Z,990.348
2019-04-20T20:13:04.083Z,990.368
2019-04-20T20:14:53.117Z,990.363
2019-04-20T20:17:32.460Z,990.350
2019-04-20T20:19:14.038Z,990.369
2019-04-20T20:21:22.092Z,990.369
2019-04-20T20:22:58.844Z,990.389
2019-04-20T20:24:52.682Z,990.414
2019-04-20T20:27:09.405Z,990.430
2019-04-20T20:29:19.180Z,990.440
2019-04-20T20:31:20.484Z,990.443
2019-04-20T20:33:27.674Z,990.461
2019-04-20T20:35:16.548Z,990.481
2019-04-20T20:37:09.562Z,990.483
2019-04-20T20:39:09.531Z,990.511
2019-04-20T20:41:17.815Z,990.503
2019-04-20T20:43:18.002Z,990.509
2019-04-20T20:45:15.607Z,990.515
2019-04-20T20:47:36.588Z,990.536
2019-04-20T20:49:26.499Z,990.563
2019-04-20T20:51:34.338Z,990.584
2019-04-20T20:53:16.190Z,990.608
2019-04-20T20:55:20.780Z,990.626
2019-04-20T20:57:13.136Z,990.655
2019-04-20T20:59:15.458Z,990.657
2019-04-20T21:01:15.837Z,990.671
2019-04-20T21:03:07.776Z,990.668
2019-04-20T21:04:49.735Z,990.696
2019-04-20T21:06:51.129Z,990.716
2019-04-20T21:08:59.850Z,990.724
2019-04-20T21:10:52.774Z,990.736
2019-04-20T21:13:05.446Z,990.745
2019-04-20T21:14:51.255Z,990.764
2019-04-20T21:17:15.884Z,990.768
2019-04-20T21:19:23.325Z,990.776
2019-04-20T21:21:20.188Z,990.775
2019-04-20T21:23:22.241Z,990.786
2019-04-20T21:24:53.133Z,990.814
2019-04-20T21:26:51.444Z,990.819
2019-04-20T21:28:50.310Z,990.816
2019-04-20T21:30:56.874Z,990.798
2019-04-20T21:33:03.463Z,990.780
2019-04-20T21:35:06.865Z,990.775
2019-04-20T21:37:03.378Z,990.756
2019-04-20T21:38:51.924Z,990.762
2019-04-20T21:41:09.284Z,990.747
2019-04-20T21:43:07.224Z,990.722
2019-04-20T21:45:06.880Z,990.703
2019-04-20T21:46:57.986Z,990.699
2019-04-20T21:49:26.108Z,990.698
2019-04-20T21:51:24.203Z,990.690
2019-04-20T21:53:14.287Z,990.682
2019-04-20T21:54:52.193Z,990.672
2019-04-20T21:57:07.753Z,990.657
2019-04-20T21:59:04.166Z,990.641
2019-04-20T22:01:18.451Z,990.620
2019-04-20T22:03:05.666Z,990.606
2019-04-20T22:04:51.514Z,990.592
2019-04-20T22:06:50.393Z,990.592
2019-04-20T22:09:02.452Z,990.585
2019-04-20T22:10:50.543Z,990.600
2019-04-20T22:13:02.529Z,990.583
2019-04-20T22:15:15.721Z,990.572
2019-04-20T22:16:59.031Z,990.559
2019-04-20T22:19:24.445Z,990.545
2019-04-20T22:21:20.990Z,990.541
2019-04-20T22:23:18.503Z,990.533
2019-04-20T22:25:28.041Z,990.537
2019-04-20T22:27:15.689Z,990.549
2019-04-20T22:28:50.349Z,990.545
2019-04-20T22:30:50.617Z,990.539
2019-04-20T22:32:54.951Z,990.521
2019-04-20T22:35:10.242Z,990.521
2019-04-20T22:36:53.740Z,990.518
2019-04-20T22:39:01.308Z,990.546
2019-04-20T22:40:49.920Z,990.554
2019-04-20T22:43:00.499Z,990.537
2019-04-20T22:45:10.461Z,990.535
2019-04-20T22:46:50.279Z,990.541
2019-04-20T22:49:26.397Z,990.527
2019-04-20T22:51:19.409Z,990.526
2019-04-20T22:53:22.444Z,990.517
2019-04-20T22:55:23.571Z,990.508
2019-04-20T22:57:23.305Z,990.480
2019-04-20T22:59:13.750Z,990.439
2019-04-20T23:01:14.959Z,990.414
2019-04-20T23:02:52.401Z,990.371
2019-04-20T23:04:51.017Z,990.348
2019-04-20T23:06:54.052Z,990.317
2019-04-20T23:09:03.179Z,990.288
2019-04-20T23:10:51.570Z,990.252
2019-04-20T23:12:59.523Z,990.240
2019-04-20T23:14:50.499Z,990.214
2019-04-20T23:16:57.611Z,990.203
2019-04-20T23:18:50.201Z,990.156
2019-04-20T23:21:03.686Z,990.109
2019-04-20T23:22:54.470Z,990.067
2019-04-20T23:24:51.309Z,990.040
2019-04-20T23:26:51.048Z,990.006
2019-04-20T23:29:00.773Z,989.996
2019-04-20T23:31:12.192Z,989.985
2019-04-20T23:32:51.923Z,989.992
2019-04-20T23:35:13.350Z,989.977
2019-04-20T23:36:52.406Z,989.971
2019-04-20T23:39:01.559Z,989.976
2019-04-20T23:40:50.251Z,989.981
2019-04-20T23:42:51.939Z,989.975
2019-04-20T23:44:59.887Z,989.973
2019-04-20T23:47:11.520Z,989.973
2019-04-20T23:48:50.545Z,989.951
2019-04-20T23:53:19.291Z,989.960
2019-04-20T23:55:08.450Z,989.956
2019-04-20T23:56:50.317Z,989.981
2019-04-20T23:58:59.675Z,989.992
